createdAt,value
2022-10-12T00:02:06.960Z,8.70
2022-10-12T00:06:18.128Z,5.38
2022-10-12T00:10:20.119Z,6.10
2022-10-12T00:14:22.148Z,5.78
2022-10-12T00:18:24.202Z,5.65
2022-10-12T00:22:26.269Z,7.93
2022-10-12T00:26:29.555Z,5.32
2022-10-12T00:30:31.723Z,5.43
2022-10-12T00:34:33.771Z,5.35
2022-10-12T00:38:35.773Z,5.47
2022-10-12T00:42:37.769Z,7.35
2022-10-12T00:46:44.835Z,6.10
2022-10-12T00:50:46.963Z,6.70
2022-10-12T00:54:51.005Z,7.72
2022-10-12T00:58:54.883Z,4.25
2022-10-12T01:02:58.129Z,4.68
2022-10-12T01:07:00.875Z,6.13
2022-10-12T01:11:03.909Z,5.10
2022-10-12T01:15:06.716Z,3.30
2022-10-12T01:19:34.186Z,4.43
2022-10-12T01:23:55.278Z,4.65
2022-10-12T01:28:11.813Z,4.13
2022-10-12T01:32:21.768Z,4.77
2022-10-12T01:36:37.256Z,4.35
2022-10-12T01:40:50.985Z,4.82
2022-10-12T01:45:08.419Z,4.05
2022-10-12T01:53:33.213Z,6.00
2022-10-12T01:58:04.689Z,6.45
2022-10-12T02:02:19.018Z,5.65
2022-10-12T02:06:24.269Z,5.88
2022-10-12T02:10:38.901Z,7.20
2022-10-12T02:14:46.785Z,5.32
2022-10-12T02:18:52.602Z,6.18
2022-10-12T02:22:55.011Z,4.93
2022-10-12T02:26:58.257Z,5.38
2022-10-12T02:31:09.272Z,5.35
2022-10-12T02:35:25.261Z,5.05
2022-10-12T02:39:32.463Z,5.93
2022-10-12T02:47:40.591Z,5.53
2022-10-12T02:51:44.603Z,5.63
2022-10-12T02:55:56.047Z,4.70
2022-10-12T02:59:58.041Z,6.38
2022-10-12T03:04:00.031Z,5.07
2022-10-12T03:08:01.996Z,7.95
2022-10-12T03:12:04.071Z,6.10
2022-10-12T03:16:11.339Z,5.32
2022-10-12T03:20:13.625Z,5.55
2022-10-12T03:24:15.598Z,4.57
2022-10-12T03:28:17.718Z,5.63
2022-10-12T03:32:19.729Z,4.78
2022-10-12T03:36:21.739Z,6.25
2022-10-12T03:40:23.704Z,4.03
2022-10-12T03:44:25.783Z,4.25
2022-10-12T03:48:27.836Z,5.20
2022-10-12T03:52:29.847Z,4.43
2022-10-12T03:56:31.882Z,5.57
2022-10-12T04:00:33.941Z,5.45
2022-10-12T04:04:35.981Z,5.78
2022-10-12T04:08:40.152Z,3.35
2022-10-12T04:12:42.337Z,4.47
2022-10-12T04:16:44.297Z,5.93
2022-10-12T04:20:49.948Z,4.38
2022-10-12T04:24:52.031Z,3.95
2022-10-12T04:28:54.122Z,5.70
2022-10-12T04:32:56.444Z,8.18
2022-10-12T04:36:58.422Z,7.47
2022-10-12T04:41:00.415Z,8.43
2022-10-12T04:45:02.587Z,7.07
2022-10-12T04:49:04.669Z,8.52
2022-10-12T04:53:06.674Z,7.43
2022-10-12T04:57:08.769Z,5.72
2022-10-12T05:01:11.110Z,4.45
2022-10-12T05:05:13.184Z,5.88
2022-10-12T05:09:17.066Z,3.42
2022-10-12T05:13:19.451Z,5.50
2022-10-12T05:17:21.407Z,6.75
2022-10-12T05:21:23.416Z,5.82
2022-10-12T05:25:25.673Z,4.25
2022-10-12T05:29:27.658Z,6.07
2022-10-12T05:33:29.938Z,5.88
2022-10-12T05:37:33.281Z,5.22
2022-10-12T05:41:35.283Z,5.60
2022-10-12T05:45:37.333Z,7.50
2022-10-12T05:49:39.359Z,4.88
2022-10-12T05:53:41.480Z,6.95
2022-10-12T05:57:44.325Z,4.80
2022-10-12T06:01:49.782Z,4.85
2022-10-12T06:05:51.913Z,8.63
2022-10-12T06:09:54.219Z,6.75
2022-10-12T06:13:56.209Z,4.18
2022-10-12T06:17:58.289Z,5.55
2022-10-12T06:22:00.292Z,11.30
2022-10-12T06:26:02.470Z,10.05
2022-10-12T06:30:05.122Z,10.88
2022-10-12T06:34:07.163Z,8.75
2022-10-12T06:38:09.276Z,10.48
2022-10-12T06:42:11.868Z,14.45
2022-10-12T06:46:24.408Z,9.68
2022-10-12T06:50:26.792Z,11.45
2022-10-12T06:54:28.776Z,8.68
2022-10-12T06:58:30.768Z,8.43
2022-10-12T07:02:33.676Z,9.32
2022-10-12T07:06:35.704Z,8.80
2022-10-12T07:10:37.663Z,9.20
2022-10-12T07:14:39.821Z,12.38
2022-10-12T07:18:41.997Z,8.52
2022-10-12T07:22:44.558Z,11.15
2022-10-12T07:26:46.573Z,7.40
2022-10-12T07:30:48.748Z,9.38
2022-10-12T07:34:50.800Z,8.93
2022-10-12T07:38:52.964Z,10.57
2022-10-12T07:43:23.315Z,10.35
2022-10-12T07:47:17.750Z,15.38
2022-10-12T07:51:19.874Z,18.17
2022-10-12T07:55:21.901Z,17.20
2022-10-12T07:59:24.148Z,19.52
2022-10-12T08:03:26.197Z,12.18
2022-10-12T08:07:28.190Z,13.07
2022-10-12T08:11:30.320Z,8.23
2022-10-12T08:15:32.340Z,5.03
2022-10-12T08:19:36.372Z,6.47
2022-10-12T08:23:39.057Z,8.15
2022-10-12T08:27:41.535Z,5.63
2022-10-12T08:31:43.649Z,6.47
2022-10-12T08:35:47.760Z,5.00
2022-10-12T08:39:49.786Z,6.65
2022-10-12T08:44:04.163Z,9.45
2022-10-12T08:48:12.354Z,8.98
2022-10-12T08:52:41.480Z,6.50
2022-10-12T08:56:44.745Z,6.00
2022-10-12T09:00:50.663Z,9.27
2022-10-12T09:05:01.396Z,6.60
2022-10-12T09:09:15.684Z,7.35
2022-10-12T09:13:26.746Z,7.18
2022-10-12T09:17:47.465Z,7.78
2022-10-12T09:21:50.191Z,9.63
2022-10-12T09:25:56.889Z,10.90
2022-10-12T09:30:05.364Z,10.77
2022-10-12T09:34:09.541Z,10.48
2022-10-12T09:38:11.913Z,8.45
2022-10-12T09:42:13.918Z,11.93
2022-10-12T09:46:19.747Z,8.88
2022-10-12T09:50:40.850Z,9.27
2022-10-12T09:54:53.584Z,8.57
2022-10-12T09:59:05.545Z,8.43
2022-10-12T10:03:27.876Z,8.65
2022-10-12T10:07:35.804Z,11.18
2022-10-12T10:11:37.795Z,9.02
2022-10-12T10:15:40.250Z,14.77
2022-10-12T10:19:49.279Z,12.15
2022-10-12T10:23:54.423Z,10.80
2022-10-12T10:28:27.770Z,12.70
2022-10-12T10:32:31.542Z,10.90
2022-10-12T10:36:40.717Z,10.77
2022-10-12T10:40:42.782Z,15.63
2022-10-12T10:44:59.908Z,11.35
2022-10-12T10:49:08.942Z,11.45
2022-10-12T10:53:25.169Z,7.70
2022-10-12T10:57:27.781Z,11.90
2022-10-12T11:01:50.369Z,9.30
2022-10-12T11:06:08.791Z,8.00
2022-10-12T11:10:19.072Z,8.18
2022-10-12T11:14:28.662Z,6.88
2022-10-12T11:18:44.651Z,10.65
2022-10-12T11:23:04.946Z,11.20
2022-10-12T11:27:12.560Z,7.55
2022-10-12T11:31:20.081Z,9.20
2022-10-12T11:35:28.155Z,11.45
2022-10-12T11:39:34.578Z,10.32
2022-10-12T11:43:44.286Z,10.23
2022-10-12T11:47:49.167Z,11.50
2022-10-12T11:51:55.419Z,8.52
2022-10-12T11:56:09.906Z,9.93
2022-10-12T12:00:23.823Z,10.00
2022-10-12T12:04:47.472Z,7.10
2022-10-12T12:09:17.712Z,9.75
2022-10-12T12:13:23.240Z,9.25
2022-10-12T12:17:31.686Z,10.75
2022-10-12T12:22:12.541Z,11.48
2022-10-12T12:26:17.872Z,5.43
2022-10-12T12:30:19.847Z,10.65
2022-10-12T12:34:22.824Z,9.57
2022-10-12T12:38:30.878Z,7.53
2022-10-12T12:42:34.198Z,7.65
2022-10-12T12:46:54.315Z,9.73
2022-10-12T12:50:59.624Z,8.57
2022-10-12T12:55:18.512Z,11.35
2022-10-12T12:59:48.147Z,8.30
2022-10-12T13:04:03.306Z,9.48
2022-10-12T13:08:11.365Z,9.07
2022-10-12T13:12:39.862Z,13.85
2022-10-12T13:21:25.770Z,8.63
2022-10-12T13:25:43.751Z,9.05
2022-10-12T13:29:53.078Z,11.65
2022-10-12T13:34:11.672Z,8.50
2022-10-12T13:38:26.343Z,10.43
2022-10-12T13:42:33.634Z,9.07
2022-10-12T13:51:00.224Z,11.25
2022-10-12T13:55:15.197Z,8.70
2022-10-12T13:59:21.218Z,11.15
2022-10-12T14:03:34.206Z,9.75
2022-10-12T14:07:38.608Z,13.90
2022-10-12T14:11:42.660Z,8.00
2022-10-12T14:15:44.926Z,11.88
2022-10-12T14:19:51.301Z,12.32
2022-10-12T14:23:54.583Z,11.73
2022-10-12T14:28:01.630Z,8.75
2022-10-12T14:32:26.423Z,11.38
2022-10-12T14:36:29.094Z,10.63
2022-10-12T14:40:41.927Z,9.20
2022-10-12T14:44:44.275Z,11.55
2022-10-12T14:48:46.274Z,12.13
2022-10-12T14:52:51.533Z,11.57
2022-10-12T14:56:53.555Z,10.27
2022-10-12T15:00:56.765Z,15.00
2022-10-12T15:04:59.666Z,10.80
2022-10-12T15:09:01.755Z,10.95
2022-10-12T15:13:03.938Z,13.07
2022-10-12T15:17:05.985Z,11.07
2022-10-12T15:21:08.751Z,10.35
2022-10-12T15:25:22.247Z,11.48
2022-10-12T15:29:24.553Z,10.48
2022-10-12T15:33:26.566Z,10.95
2022-10-12T15:37:31.267Z,12.07
2022-10-12T15:41:33.367Z,9.50
2022-10-12T15:45:38.433Z,9.85
2022-10-12T15:49:40.430Z,8.13
2022-10-12T15:53:44.734Z,8.95
2022-10-12T15:57:47.036Z,11.88
2022-10-12T16:01:49.080Z,13.27
2022-10-12T16:05:51.069Z,14.80
2022-10-12T16:09:53.170Z,15.05
2022-10-12T16:13:56.886Z,14.73
2022-10-12T16:18:00.739Z,15.10
2022-10-12T16:22:04.735Z,14.70
2022-10-12T16:26:11.755Z,14.70
2022-10-12T16:30:14.564Z,12.48
2022-10-12T16:34:16.616Z,16.83
2022-10-12T16:38:20.221Z,12.98
2022-10-12T16:42:22.895Z,16.45
2022-10-12T16:46:24.994Z,13.20
2022-10-12T16:50:27.132Z,13.70
2022-10-12T16:54:29.273Z,14.88
2022-10-12T16:58:31.418Z,10.60
2022-10-12T17:02:33.445Z,20.33
2022-10-12T17:06:35.509Z,15.75
2022-10-12T17:10:42.698Z,15.38
2022-10-12T17:14:44.723Z,16.38
2022-10-12T17:18:46.703Z,12.20
2022-10-12T17:22:48.690Z,13.20
2022-10-12T17:26:51.036Z,13.68
2022-10-12T17:30:53.052Z,13.13
2022-10-12T17:34:55.720Z,11.32
2022-10-12T17:38:58.786Z,17.75
2022-10-12T17:43:00.773Z,14.07
2022-10-12T17:47:02.904Z,14.77
2022-10-12T17:51:09.582Z,13.88
2022-10-12T17:55:29.631Z,16.98
2022-10-12T17:59:33.596Z,15.50
2022-10-12T18:03:35.808Z,14.27
2022-10-12T18:07:38.476Z,13.80
2022-10-12T18:11:40.626Z,15.75
2022-10-12T18:15:43.775Z,14.45
2022-10-12T18:19:47.071Z,12.05
2022-10-12T18:23:50.040Z,13.23
2022-10-12T18:27:52.411Z,13.20
2022-10-12T18:31:54.390Z,17.30
2022-10-12T18:36:04.824Z,18.00
2022-10-12T18:40:07.469Z,18.88
2022-10-12T18:44:10.759Z,16.58
2022-10-12T18:48:13.453Z,18.75
2022-10-12T18:52:15.740Z,17.98
2022-10-12T18:56:18.544Z,18.52
2022-10-12T19:00:20.674Z,17.73
2022-10-12T19:04:22.777Z,17.30
2022-10-12T19:08:24.772Z,19.52
2022-10-12T19:12:26.795Z,15.02
2022-10-12T19:16:29.879Z,16.63
2022-10-12T19:20:32.629Z,22.88
2022-10-12T19:24:34.807Z,12.52
2022-10-12T19:28:36.989Z,20.10
2022-10-12T19:32:39.047Z,16.58
2022-10-12T19:36:41.545Z,21.42
2022-10-12T19:40:43.704Z,16.40
2022-10-12T19:44:45.741Z,19.85
2022-10-12T19:48:50.524Z,17.33
2022-10-12T19:52:52.599Z,19.77
2022-10-12T19:56:54.596Z,14.13
2022-10-12T20:01:01.124Z,15.68
2022-10-12T20:05:03.340Z,15.90
2022-10-12T20:09:07.486Z,16.13
2022-10-12T20:13:09.496Z,18.83
2022-10-12T20:17:11.536Z,19.98
2022-10-12T20:21:16.355Z,18.58
2022-10-12T20:25:18.437Z,15.35
2022-10-12T20:29:20.489Z,18.13
2022-10-12T20:33:22.552Z,17.45
2022-10-12T20:37:24.705Z,18.17
2022-10-12T20:41:27.814Z,19.40
2022-10-12T20:45:29.871Z,24.00
2022-10-12T20:49:31.860Z,31.75
2022-10-12T20:53:34.315Z,29.80
2022-10-12T20:57:36.483Z,26.08
2022-10-12T21:01:38.513Z,29.17
2022-10-12T21:05:40.591Z,27.13
2022-10-12T21:09:42.781Z,26.52
2022-10-12T21:13:45.956Z,43.13
2022-10-12T21:17:47.975Z,56.13
2022-10-12T21:21:49.951Z,35.47
2022-10-12T21:25:52.734Z,32.65
2022-10-12T21:29:54.788Z,34.72
2022-10-12T21:33:56.788Z,47.75
2022-10-12T21:37:58.780Z,45.20
2022-10-12T21:42:00.819Z,50.10
2022-10-12T21:46:11.832Z,46.88
2022-10-12T21:50:13.892Z,34.33
2022-10-12T21:54:15.893Z,35.30
2022-10-12T21:58:17.986Z,32.63
2022-10-12T22:02:20.276Z,26.95
2022-10-12T22:06:24.416Z,32.70
2022-10-12T22:10:26.602Z,24.85
2022-10-12T22:14:28.657Z,23.77
2022-10-12T22:18:30.765Z,20.60
2022-10-12T22:22:33.109Z,19.55
2022-10-12T22:26:35.366Z,18.10
2022-10-12T22:30:40.681Z,17.70
2022-10-12T22:34:42.696Z,16.55
2022-10-12T22:38:44.943Z,20.17
2022-10-12T22:42:46.920Z,17.70
2022-10-12T22:46:48.986Z,20.17
2022-10-12T22:50:52.240Z,18.75
2022-10-12T22:54:54.299Z,18.02
2022-10-12T22:58:58.445Z,23.00
2022-10-12T23:03:00.461Z,30.23
2022-10-12T23:07:02.497Z,28.35
2022-10-12T23:11:10.496Z,22.98
2022-10-12T23:15:12.518Z,20.65
2022-10-12T23:19:16.332Z,18.73
2022-10-12T23:23:18.425Z,18.67
2022-10-12T23:27:20.419Z,18.27
2022-10-12T23:31:25.726Z,16.15
2022-10-12T23:35:27.835Z,18.58
2022-10-12T23:39:31.779Z,20.20
2022-10-12T23:43:34.718Z,22.90
2022-10-12T23:47:39.103Z,31.52
2022-10-12T23:51:41.839Z,21.55
2022-10-12T23:55:44.213Z,15.15
2022-10-12T23:59:46.197Z,18.67
